Time;durP1;ratioP1;P1;durP2;ratioP2;P2;SDS_P1;SDS_P2;PMS_P1;PMS_P2;Temp;Humidity;BMP_temperature;BMP_pressure;BME280_temperature;BME280_humidity;BME280_pressure;Samples;Min_cycle;Max_cycle;Signal;HPM_P1;HPM_P2
2022/10/06 00:00:22;;;;;;;3.00;1.77;;;;;;;13.63;52.95;102474.03;5147935;27;20423;-64
2022/10/06 00:02:47;;;;;;;4.00;1.70;;;;;;;13.64;52.63;102474.84;5140544;27;20383;-64
2022/10/06 00:05:13;;;;;;;4.30;1.60;;;;;;;13.62;52.81;102475.00;5127155;27;20367;-64
2022/10/06 00:09:42;;;;;;;3.17;1.55;;;;;;;13.49;53.23;102477.16;5057426;28;20432;-64
2022/10/06 00:12:09;;;;;;;3.22;1.50;;;;;;;13.48;52.97;102470.16;5046980;28;20401;-63
2022/10/06 00:14:35;;;;;;;2.70;2.07;;;;;;;13.51;53.04;102475.19;5046731;28;20389;-64
2022/10/06 00:21:54;;;;;;;3.60;2.00;;;;;;;13.45;53.02;102459.78;5052768;27;20406;-64
2022/10/06 00:24:20;;;;;;;3.73;1.57;;;;;;;13.46;52.91;102459.63;5034634;28;20469;-64
2022/10/06 00:27:39;;;;;;;2.53;1.70;;;;;;;13.44;53.19;102458.94;5090762;27;20430;-64
2022/10/06 00:30:08;;;;;;;3.20;1.85;;;;;;;13.41;53.00;102461.88;5086548;28;20868;-63
2022/10/06 00:32:33;;;;;;;2.47;1.60;;;;;;;13.39;53.37;102453.22;5069743;28;20764;-63
2022/10/06 00:34:59;;;;;;;2.70;1.90;;;;;;;13.37;53.22;102453.34;5076255;28;20505;-64
2022/10/06 00:39:48;;;;;;;2.92;2.00;;;;;;;13.32;53.28;102452.94;5028951;28;20762;-64
2022/10/06 00:42:27;;;;;;;3.65;1.80;;;;;;;13.28;53.26;102453.34;5069863;27;20410;-64
2022/10/06 00:44:54;;;;;;;4.78;2.13;;;;;;;13.32;53.16;102452.09;5046907;28;20397;-65
2022/10/06 00:47:23;;;;;;;3.00;1.73;;;;;;;13.33;53.36;102445.81;5046601;28;20473;-64
2022/10/06 00:49:49;;;;;;;4.00;1.90;;;;;;;13.31;53.11;102445.13;5037568;28;20400;-64
2022/10/06 00:53:52;;;;;;;2.05;1.85;;;;;;;13.27;53.36;102444.53;5069090;27;2029002;-63
2022/10/06 00:56:18;;;;;;;3.58;2.00;;;;;;;13.28;53.46;102451.53;5148814;27;20870;-64
2022/10/06 00:58:43;;;;;;;3.43;1.80;;;;;;;13.25;53.33;102451.81;5147667;27;20414;-64
2022/10/06 01:01:11;;;;;;;4.27;1.87;;;;;;;13.19;53.17;102445.25;5140785;27;20371;-64
2022/10/06 01:04:45;;;;;;;5.18;2.15;;;;;;;13.15;53.43;102445.69;5073642;28;20936;-64
2022/10/06 01:07:11;;;;;;;3.00;1.90;;;;;;;13.11;53.48;102439.00;5066180;28;20865;-63
2022/10/06 01:12:34;;;;;;;3.45;1.85;;;;;;;13.05;53.51;102426.22;5018325;28;20919;-64
2022/10/06 01:16:58;;;;;;;2.40;1.70;;;;;;;13.01;53.45;102436.34;5091609;27;20415;-63
2022/10/06 01:19:54;;;;;;;3.85;1.80;;;;;;;12.96;53.61;102439.44;5066585;28;20423;-65
2022/10/06 01:22:43;;;;;;;2.47;1.60;;;;;;;12.93;53.46;102429.06;5066577;28;20522;-64
2022/10/06 01:27:10;;;;;;;3.63;1.70;;;;;;;12.89;53.68;102433.00;5090624;27;20412;-64
2022/10/06 01:29:36;;;;;;;4.13;1.90;;;;;;;12.90;53.40;102441.81;5079143;28;20414;-63
2022/10/06 01:32:02;;;;;;;2.33;1.60;;;;;;;12.89;53.54;102437.47;5052925;28;20464;-64
2022/10/06 01:34:28;;;;;;;2.77;1.83;;;;;;;12.89;53.42;102438.34;5066522;28;20386;-63
2022/10/06 01:38:25;;;;;;;3.08;1.92;;;;;;;12.80;53.33;102432.03;5074336;27;20432;-63
2022/10/06 01:40:52;;;;;;;3.85;2.17;;;;;;;12.78;53.51;102422.50;5086661;28;20394;-65
2022/10/06 01:43:17;;;;;;;3.63;1.95;;;;;;;12.76;53.42;102424.47;5085779;28;20392;-64
2022/10/06 01:45:43;;;;;;;3.38;2.10;;;;;;;12.73;53.46;102414.09;5067162;28;20380;-63
2022/10/06 01:48:08;;;;;;;4.10;2.00;;;;;;;12.75;53.42;102425.47;5066651;28;20376;-66
2022/10/06 01:50:34;;;;;;;4.22;2.03;;;;;;;12.73;53.34;102422.94;5052727;28;20376;-65
2022/10/06 01:57:29;;;;;;;4.13;1.88;;;;;;;12.69;53.57;102420.69;5086944;27;20463;-64
2022/10/06 02:01:50;;;;;;;2.65;2.20;;;;;;;12.68;53.46;102429.69;5093586;27;20403;-65
2022/10/06 02:04:15;;;;;;;3.58;2.40;;;;;;;12.69;53.58;102418.88;5068084;28;20403;-66
2022/10/06 02:06:50;;;;;;;4.72;2.70;;;;;;;12.66;53.36;102413.84;5083558;27;20461;-65
2022/10/06 02:09:15;;;;;;;4.60;2.43;;;;;;;12.67;53.31;102425.31;5065431;28;20396;-65
2022/10/06 02:11:41;;;;;;;3.60;2.50;;;;;;;12.68;53.10;102424.34;5066494;28;20434;-64
2022/10/06 02:14:06;;;;;;;4.43;2.63;;;;;;;12.69;53.36;102421.53;5065786;28;20383;-64
2022/10/06 02:16:32;;;;;;;2.63;2.30;;;;;;;12.67;53.02;102418.19;5066644;28;20898;-65
2022/10/06 02:20:24;;;;;;;3.13;2.50;;;;;;;12.69;53.13;102424.19;5051005;28;20413;-63
2022/10/06 02:22:50;;;;;;;3.63;2.40;;;;;;;12.68;53.01;102419.88;5046578;28;20393;-64
2022/10/06 02:25:16;;;;;;;4.70;2.70;;;;;;;12.67;53.09;102420.00;5046564;28;20410;-64
2022/10/06 02:27:43;;;;;;;3.97;2.65;;;;;;;12.63;52.91;102422.94;5046490;28;20396;-64
2022/10/06 02:30:09;;;;;;;3.78;2.70;;;;;;;12.60;53.22;102425.91;5046585;28;20393;-64
2022/10/06 02:32:36;;;;;;;3.50;2.60;;;;;;;12.58;53.31;102417.19;5047068;28;20377;-64
2022/10/06 02:35:12;;;;;;;5.57;3.00;;;;;;;12.59;53.21;102426.03;5089711;27;20923;-64
2022/10/06 02:37:39;;;;;;;6.38;2.65;;;;;;;12.57;53.29;102423.50;5087286;28;20391;-64
2022/10/06 02:41:49;;;;;;;4.78;3.00;;;;;;;12.60;53.28;102419.72;5092164;27;20755;-64
2022/10/06 02:44:14;;;;;;;6.22;2.80;;;;;;;12.53;53.31;102414.16;5066740;28;20396;-64
2022/10/06 02:46:40;;;;;;;3.63;2.67;;;;;;;12.47;53.30;102405.88;5055890;28;20378;-64
2022/10/06 02:49:34;;;;;;;4.13;2.80;;;;;;;12.42;53.41;102406.28;5079278;28;20412;-64
2022/10/06 02:51:59;;;;;;;4.82;3.15;;;;;;;12.42;53.68;102398.31;5066899;28;20465;-64
2022/10/06 02:54:25;;;;;;;3.37;2.80;;;;;;;12.45;53.51;102399.88;5066591;28;20388;-63
2022/10/06 02:57:41;;;;;;;5.50;3.20;;;;;;;12.41;53.63;102400.13;5067409;27;20475;-63
2022/10/06 03:00:07;;;;;;;5.40;3.08;;;;;;;12.45;53.68;102398.03;5066596;28;20893;-64
2022/10/06 03:02:33;;;;;;;5.90;2.72;;;;;;;12.45;53.50;102395.38;5066282;28;20376;-64
2022/10/06 03:04:59;;;;;;;5.35;2.90;;;;;;;12.43;53.68;102389.38;5066969;28;20387;-65
2022/10/06 03:08:23;;;;;;;5.13;3.00;;;;;;;12.43;53.70;102400.84;5098621;27;20398;-64
2022/10/06 03:10:48;;;;;;;5.60;3.40;;;;;;;12.38;53.97;102391.59;5086816;28;20394;-63
2022/10/06 03:13:14;;;;;;;6.03;3.00;;;;;;;12.40;53.83;102400.28;5081197;28;20471;-64
2022/10/06 03:15:39;;;;;;;8.05;3.50;;;;;;;12.39;53.85;102393.28;5077637;28;20378;-63
2022/10/06 03:18:05;;;;;;;8.50;3.40;;;;;;;12.40;53.94;102400.28;5055796;28;20413;-63
2022/10/06 03:20:30;;;;;;;5.50;3.45;;;;;;;12.42;54.06;102399.19;5076506;28;21252;-64
2022/10/06 03:22:56;;;;;;;5.00;3.97;;;;;;;12.45;54.00;102402.53;5065467;28;20372;-64
2022/10/06 03:25:21;;;;;;;10.93;6.23;;;;;;;12.42;54.17;102400.97;5070564;28;20382;-64
2022/10/06 03:27:47;;;;;;;6.97;4.67;;;;;;;12.39;54.10;102396.78;5064595;28;20416;-63
2022/10/06 03:31:03;;;;;;;7.18;3.75;;;;;;;12.36;53.91;102406.88;5073840;27;20404;-63
2022/10/06 03:34:03;;;;;;;6.50;3.80;;;;;;;12.29;54.21;102403.91;5087625;27;20404;-64
2022/10/06 03:37:00;;;;;;;5.28;3.60;;;;;;;12.26;54.25;102406.84;5098655;27;20459;-63
2022/10/06 03:39:26;;;;;;;6.85;3.67;;;;;;;12.24;54.31;102400.84;5086942;28;20405;-63
2022/10/06 03:44:25;;;;;;;8.15;3.95;;;;;;;12.16;54.41;102404.19;5097155;27;20406;-63
2022/10/06 03:46:50;;;;;;;8.20;4.07;;;;;;;12.15;54.54;102412.31;5070750;28;20477;-64
2022/10/06 03:49:15;;;;;;;7.20;3.60;;;;;;;12.07;54.81;102415.66;5066582;28;20388;-64
2022/10/06 03:51:41;;;;;;;5.43;3.60;;;;;;;12.04;54.73;102402.63;5079704;28;20383;-64
2022/10/06 03:54:09;;;;;;;8.37;3.70;;;;;;;12.04;54.67;102406.13;5067441;28;20449;-64
2022/10/06 03:56:37;;;;;;;7.40;3.90;;;;;;;12.01;54.80;102409.09;5071768;28;20382;-64
2022/10/06 04:01:41;;;;;;;9.68;4.05;;;;;;;11.99;54.68;102400.41;5102967;27;20463;-63
2022/10/06 04:04:47;;;;;;;5.82;3.80;;;;;;;12.03;54.72;102409.78;5078649;27;20404;-64
2022/10/06 04:07:12;;;;;;;5.27;3.43;;;;;;;11.96;54.70;102413.13;5065428;28;20513;-63
2022/10/06 04:09:38;;;;;;;4.73;3.40;;;;;;;11.93;54.82;102418.72;5063720;28;20392;-64
2022/10/06 04:12:22;;;;;;;6.72;3.90;;;;;;;11.92;54.67;102415.22;5078860;27;20402;-65
2022/10/06 04:15:39;;;;;;;6.47;3.72;;;;;;;11.93;54.93;102411.56;5033143;28;20419;-65
2022/10/06 04:18:05;;;;;;;7.18;3.72;;;;;;;11.93;54.48;102418.72;5026906;28;20403;-64
2022/10/06 04:20:30;;;;;;;9.75;4.07;;;;;;;11.92;54.80;102409.03;5027138;28;20461;-65
2022/10/06 04:25:23;;;;;;;10.30;4.40;;;;;;;11.98;54.71;102416.50;5055812;27;20406;-64
2022/10/06 04:27:48;;;;;;;8.70;4.13;;;;;;;11.98;54.57;102419.16;5056364;28;20542;-64
2022/10/06 04:30:14;;;;;;;11.43;4.90;;;;;;;11.97;54.58;102414.78;5056602;28;20388;-63
2022/10/06 04:33:38;;;;;;;6.80;4.00;;;;;;;11.98;54.68;102419.16;5071572;27;20922;-64
2022/10/06 04:36:06;;;;;;;5.97;3.75;;;;;;;11.98;54.51;102419.97;5065286;28;20434;-64
2022/10/06 04:38:33;;;;;;;9.40;4.38;;;;;;;11.99;54.53;102418.16;5065430;28;20469;-63
2022/10/06 04:41:13;;;;;;;5.37;3.60;;;;;;;12.03;54.42;102416.91;5064561;28;20398;-63
2022/10/06 04:43:38;;;;;;;10.18;4.55;;;;;;;12.07;54.41;102409.50;5062634;28;20494;-64
2022/10/06 04:46:04;;;;;;;10.43;4.73;;;;;;;12.25;54.24;102426.44;5063342;28;20487;-65
2022/10/06 04:48:31;;;;;;;6.10;4.30;;;;;;;12.36;54.00;102415.66;5064568;28;20399;-63
2022/10/06 04:51:01;;;;;;;9.38;4.45;;;;;;;12.54;53.84;102422.97;5061993;28;20416;-63
2022/10/06 04:53:28;;;;;;;9.93;4.53;;;;;;;12.67;53.53;102423.50;5065208;28;20420;-66
2022/10/06 04:55:58;;;;;;;10.25;4.68;;;;;;;12.82;53.02;102430.06;5064262;28;20383;-64
2022/10/06 04:58:24;;;;;;;11.55;5.03;;;;;;;12.97;52.72;102433.13;5066114;28;20471;-64
2022/10/06 05:00:50;;;;;;;8.70;5.78;;;;;;;13.10;52.53;102426.66;5063940;28;20380;-66
2022/10/06 05:03:16;;;;;;;12.15;5.80;;;;;;;13.22;52.23;102435.28;5065797;28;20387;-64
2022/10/06 05:05:41;;;;;;;8.40;5.33;;;;;;;13.38;52.19;102436.41;5065646;28;20392;-65
2022/10/06 05:08:06;;;;;;;9.07;5.07;;;;;;;13.58;51.74;102431.00;5064476;28;20419;-64
2022/10/06 05:10:32;;;;;;;7.30;4.93;;;;;;;13.74;51.16;102433.84;5062685;28;20380;-64
2022/10/06 05:12:58;;;;;;;12.73;7.80;;;;;;;13.90;50.64;102435.00;5059695;28;20917;-65
2022/10/06 05:15:23;;;;;;;16.77;9.57;;;;;;;13.96;50.46;102439.75;5062271;28;20376;-64
2022/10/06 05:18:12;;;;;;;16.33;12.48;;;;;;;14.05;50.48;102424.69;5070225;27;20400;-63
2022/10/06 05:20:37;;;;;;;16.67;10.00;;;;;;;14.04;50.06;102429.16;5065534;28;20494;-64
2022/10/06 05:23:06;;;;;;;12.20;7.73;;;;;;;14.09;50.30;102432.22;5065339;28;20904;-63
2022/10/06 05:25:31;;;;;;;13.63;7.88;;;;;;;14.15;50.16;102434.28;5062081;28;20383;-65
2022/10/06 05:27:57;;;;;;;14.73;7.07;;;;;;;14.24;50.03;102419.22;5065027;28;20430;-65
2022/10/06 05:30:22;;;;;;;13.70;6.72;;;;;;;14.38;49.64;102423.16;5064803;28;20411;-64
2022/10/06 05:32:49;;;;;;;10.43;6.03;;;;;;;14.53;49.22;102416.31;5065030;28;20837;-64
2022/10/06 05:35:14;;;;;;;14.45;6.50;;;;;;;14.83;48.84;102422.22;5065593;28;20387;-65
2022/10/06 05:39:47;;;;;;;16.30;8.38;;;;;;;15.38;47.48;102429.06;5052751;27;20420;-63
2022/10/06 05:42:13;;;;;;;21.08;9.60;;;;;;;15.60;46.77;102421.47;5044854;28;20729;-64
2022/10/06 05:44:38;;;;;;;18.87;10.50;;;;;;;15.80;46.36;102419.38;5045238;28;20381;-63
2022/10/06 05:47:04;;;;;;;22.05;9.75;;;;;;;16.05;45.87;102422.97;5045375;28;20378;-65
2022/10/06 05:50:26;;;;;;;19.17;7.95;;;;;;;16.31;45.12;102425.50;5076163;27;20400;-64
2022/10/06 05:52:54;;;;;;;13.82;7.97;;;;;;;16.38;45.11;102423.00;5066196;28;20461;-64
2022/10/06 05:55:19;;;;;;;17.13;6.88;;;;;;;16.56;44.55;102430.88;5066186;28;20380;-63
2022/10/06 05:57:45;;;;;;;14.77;6.65;;;;;;;16.66;44.27;102436.06;5066505;28;20479;-64
2022/10/06 06:00:11;;;;;;;13.47;7.17;;;;;;;16.82;43.67;102436.06;5064471;28;20438;-65
2022/10/06 06:02:36;;;;;;;14.27;6.20;;;;;;;16.89;43.69;102436.22;5060575;28;20418;-63
2022/10/06 06:05:02;;;;;;;9.70;5.60;;;;;;;17.19;43.24;102435.47;5062670;28;20383;-63
2022/10/06 06:07:27;;;;;;;17.43;5.30;;;;;;;17.47;42.48;102429.72;5062104;28;20751;-65
2022/10/06 06:09:53;;;;;;;14.48;5.47;;;;;;;17.65;42.13;102436.69;5065815;28;20875;-64
2022/10/06 06:12:18;;;;;;;9.03;4.60;;;;;;;18.00;41.61;102432.66;5060945;28;20392;-64
2022/10/06 06:16:00;;;;;;;7.22;4.60;;;;;;;18.17;41.21;102427.19;5072769;27;20465;-64
2022/10/06 06:18:32;;;;;;;9.10;4.45;;;;;;;18.20;40.99;102424.97;5065219;28;20399;-64
2022/10/06 06:21:03;;;;;;;10.35;4.35;;;;;;;18.30;40.80;102430.94;5066341;28;21007;-65
2022/10/06 06:23:40;;;;;;;11.67;3.67;;;;;;;18.49;40.53;102434.16;5066648;28;20399;-64
2022/10/06 06:26:08;;;;;;;12.15;3.40;;;;;;;18.90;39.81;102440.00;5066064;28;20426;-64
2022/10/06 06:28:35;;;;;;;9.80;3.40;;;;;;;19.51;38.90;102432.81;5059197;28;20480;-64
2022/10/06 06:31:10;;;;;;;5.10;2.85;;;;;;;20.16;37.75;102437.31;5056704;28;20376;-64
2022/10/06 06:33:38;;;;;;;8.23;2.92;;;;;;;19.98;37.79;102435.03;5065307;28;20750;-63
2022/10/06 06:36:34;;;;;;;5.43;2.65;;;;;;;20.14;37.84;102441.22;5065020;28;20380;-64
2022/10/06 06:39:03;;;;;;;4.97;2.38;;;;;;;19.98;38.04;102439.59;5062912;28;20474;-64
2022/10/06 06:41:31;;;;;;;5.33;2.40;;;;;;;20.16;37.89;102450.78;5065906;28;20384;-65
2022/10/06 06:45:20;;;;;;;7.80;2.63;;;;;;;20.27;37.53;102441.34;5040017;28;20460;-64
2022/10/06 06:47:47;;;;;;;4.55;2.40;;;;;;;20.01;37.81;102444.63;5023729;28;20425;-64
2022/10/06 06:50:12;;;;;;;5.47;2.50;;;;;;;19.91;38.05;102442.22;5025566;28;21146;-65
2022/10/06 06:52:38;;;;;;;3.93;2.00;;;;;;;20.10;37.98;102432.69;5026024;28;20407;-64
2022/10/06 06:55:04;;;;;;;4.35;2.30;;;;;;;20.21;37.79;102436.75;5016110;28;20397;-64
2022/10/06 06:57:29;;;;;;;5.28;2.42;;;;;;;20.14;38.06;102433.97;5024934;28;20881;-64
2022/10/06 06:59:55;;;;;;;5.17;2.20;;;;;;;20.17;38.17;102433.59;5022846;28;20438;-64
2022/10/06 07:02:25;;;;;;;4.22;2.22;;;;;;;20.13;38.17;102431.47;5026026;28;20482;-64
2022/10/06 07:04:50;;;;;;;4.68;2.05;;;;;;;20.05;38.21;102432.44;5025854;28;20502;-64
2022/10/06 07:07:56;;;;;;;6.55;2.40;;;;;;;19.91;38.42;102433.31;5085371;27;20460;-64
2022/10/06 07:12:44;;;;;;;9.30;3.60;;;;;;;19.73;38.80;102426.47;5073597;27;20412;-64
2022/10/06 07:26:31;;;;;;;5.68;1.80;;;;;;;19.73;38.88;102425.63;5147207;27;20785;-64
2022/10/06 07:29:00;;;;;;;2.93;2.00;;;;;;;19.89;38.70;102425.44;5136094;27;20447;-65
2022/10/06 07:31:32;;;;;;;4.30;2.60;;;;;;;20.01;38.73;102426.59;5144800;27;20406;-66
2022/10/06 07:33:59;;;;;;;4.20;2.60;;;;;;;20.19;38.48;102431.53;5147863;27;20384;-65
2022/10/06 07:36:25;;;;;;;7.13;2.53;;;;;;;20.34;38.38;102420.69;5147848;27;20381;-66
2022/10/06 07:38:50;;;;;;;5.30;2.50;;;;;;;20.38;38.54;102419.31;5143312;27;20443;-65
2022/10/06 07:41:16;;;;;;;5.53;2.30;;;;;;;20.48;38.21;102427.03;5135404;27;20377;-65
2022/10/06 07:43:41;;;;;;;5.97;2.40;;;;;;;20.48;38.32;102423.53;5142684;27;20409;-65
2022/10/06 07:46:10;;;;;;;6.00;2.23;;;;;;;20.28;38.27;102426.88;5136528;27;20449;-65
2022/10/06 07:48:37;;;;;;;3.88;2.15;;;;;;;20.29;38.46;102423.13;5145939;27;20380;-65
2022/10/06 07:51:05;;;;;;;5.50;2.70;;;;;;;20.49;38.22;102427.88;5138137;27;20486;-64
2022/10/06 07:53:31;;;;;;;4.80;2.58;;;;;;;20.68;38.53;102431.81;5147249;27;20380;-65
2022/10/06 07:56:03;;;;;;;5.85;2.70;;;;;;;20.79;38.28;102424.00;5136232;27;20373;-64
2022/10/06 07:58:29;;;;;;;5.13;2.63;;;;;;;20.87;38.29;102427.56;5146183;27;20377;-64
2022/10/06 08:00:55;;;;;;;7.93;2.73;;;;;;;20.79;38.74;102436.66;5147091;27;20385;-64
2022/10/06 08:03:20;;;;;;;6.17;2.70;;;;;;;20.88;38.57;102421.16;5145327;27;20414;-65
2022/10/06 08:05:56;;;;;;;4.13;2.45;;;;;;;20.96;38.26;102421.84;5147026;27;20482;-64
2022/10/06 08:08:22;;;;;;;3.85;2.40;;;;;;;20.98;38.50;102425.16;5145490;27;20425;-64
2022/10/06 08:11:01;;;;;;;4.95;2.78;;;;;;;20.98;38.67;102417.09;5076422;27;20404;-64
2022/10/06 08:13:27;;;;;;;4.32;2.50;;;;;;;21.07;38.36;102416.91;5066687;28;20410;-65
2022/10/06 08:15:55;;;;;;;7.38;2.63;;;;;;;21.10;38.20;102416.53;5055004;28;20376;-65
2022/10/06 08:18:20;;;;;;;4.30;2.53;;;;;;;21.10;38.27;102406.56;5063740;28;20842;-65
2022/10/06 08:20:46;;;;;;;5.43;2.57;;;;;;;21.34;38.17;102416.03;5066068;28;20917;-65
2022/10/06 08:23:12;;;;;;;8.13;2.70;;;;;;;21.26;37.60;102404.59;5066833;28;20742;-64
2022/10/06 08:25:42;;;;;;;10.15;3.25;;;;;;;21.30;37.72;102406.69;5050161;28;20476;-64
2022/10/06 08:28:11;;;;;;;4.15;2.17;;;;;;;21.44;38.03;102402.16;5045652;28;20480;-64
2022/10/06 08:30:37;;;;;;;5.50;3.03;;;;;;;21.45;37.86;102403.88;5059743;28;20399;-64
2022/10/06 08:33:04;;;;;;;4.75;2.60;;;;;;;21.34;37.33;102405.25;5066169;28;20379;-65
2022/10/06 08:35:30;;;;;;;5.80;2.60;;;;;;;21.13;38.01;102398.09;5060628;28;20384;-64
2022/10/06 08:37:56;;;;;;;16.00;3.42;;;;;;;21.13;38.30;102398.09;5056615;28;20377;-64
2022/10/06 08:40:41;;;;;;;5.47;2.50;;;;;;;21.05;37.93;102400.97;5087366;27;20412;-63
2022/10/06 08:43:13;;;;;;;8.15;3.10;;;;;;;21.04;38.34;102401.16;5086064;28;20430;-64
2022/10/06 08:45:43;;;;;;;5.17;2.60;;;;;;;21.28;37.88;102400.63;5079879;28;20392;-63
2022/10/06 08:48:13;;;;;;;6.95;2.80;;;;;;;21.47;37.54;102398.28;5078076;28;20978;-63
2022/10/06 08:50:59;;;;;;;6.03;2.90;;;;;;;20.97;37.46;102401.09;5084998;28;20479;-62
2022/10/06 08:53:39;;;;;;;9.75;4.72;;;;;;;20.88;38.14;102405.00;5086644;28;20385;-63
2022/10/06 08:56:16;;;;;;;6.18;3.08;;;;;;;20.73;38.01;102402.41;5086909;28;20382;-65
2022/10/06 08:58:45;;;;;;;5.05;2.90;;;;;;;20.69;37.87;102404.66;5086376;28;20417;-64
2022/10/06 09:01:15;;;;;;;7.45;3.03;;;;;;;20.84;37.97;102407.25;5078414;28;20419;-64
2022/10/06 09:03:47;;;;;;;6.32;2.55;;;;;;;21.07;37.55;102404.28;5075106;28;20427;-63
2022/10/06 09:09:30;;;;;;;6.47;2.10;;;;;;;20.95;37.48;102408.56;5080612;27;20407;-64
2022/10/06 09:12:18;;;;;;;3.43;1.80;;;;;;;20.87;37.60;102397.91;5082181;28;20925;-64
2022/10/06 09:15:03;;;;;;;4.32;2.28;;;;;;;20.72;38.18;102392.66;5074144;28;20429;-63
2022/10/06 09:17:36;;;;;;;3.17;1.98;;;;;;;20.50;38.63;102397.22;5072288;28;20388;-63
2022/10/06 09:20:18;;;;;;;4.15;2.70;;;;;;;20.53;38.64;102399.53;5082743;28;20382;-63
2022/10/06 09:22:45;;;;;;;3.42;1.92;;;;;;;20.61;38.78;102392.16;5085038;28;20379;-64
2022/10/06 09:25:21;;;;;;;3.92;1.77;;;;;;;20.80;38.52;102395.19;5086213;28;20378;-64
2022/10/06 09:28:02;;;;;;;2.75;1.85;;;;;;;20.95;38.54;102392.38;5081127;28;20398;-64
2022/10/06 09:30:27;;;;;;;6.00;2.08;;;;;;;21.14;38.26;102393.50;5077447;28;20741;-64
2022/10/06 09:33:22;;;;;;;3.55;2.10;;;;;;;21.23;38.08;102383.41;5086995;27;20460;-64
2022/10/06 09:36:07;;;;;;;3.30;2.10;;;;;;;21.28;38.02;102378.22;5078829;28;20401;-63
2022/10/06 09:38:52;;;;;;;4.67;1.90;;;;;;;21.17;38.07;102383.16;5080894;28;20382;-65
2022/10/06 09:41:23;;;;;;;5.25;2.00;;;;;;;21.22;38.13;102381.75;5081780;28;20555;-65
2022/10/06 09:43:58;;;;;;;1.92;1.73;;;;;;;21.46;37.66;102383.13;5072288;28;20382;-64
2022/10/06 09:46:32;;;;;;;4.60;2.10;;;;;;;21.59;37.50;102380.47;5086636;28;20390;-63
2022/10/06 09:49:06;;;;;;;5.20;2.10;;;;;;;21.72;37.41;102371.59;5086523;28;20918;-64
2022/10/06 09:51:34;;;;;;;2.47;1.90;;;;;;;21.74;37.50;102373.03;5074444;28;20462;-64
2022/10/06 09:54:17;;;;;;;4.10;1.90;;;;;;;21.92;37.41;102363.53;5065980;28;20388;-63
2022/10/06 09:56:44;;;;;;;6.38;1.90;;;;;;;21.98;37.22;102356.47;5078505;28;20453;-64
2022/10/06 09:59:28;;;;;;;4.78;1.95;;;;;;;22.07;37.23;102356.03;5071800;28;20411;-63
2022/10/06 10:01:55;;;;;;;4.97;1.83;;;;;;;22.13;37.31;102357.94;5086213;28;20403;-63
2022/10/06 10:04:27;;;;;;;4.25;2.00;;;;;;;22.20;37.04;102354.38;5086428;28;20896;-64
2022/10/06 10:06:52;;;;;;;6.00;2.10;;;;;;;22.19;36.68;102358.16;5085851;28;20382;-64
2022/10/06 10:09:28;;;;;;;4.32;2.33;;;;;;;22.14;36.84;102346.06;5075479;28;20383;-65
2022/10/06 10:12:26;;;;;;;5.07;2.30;;;;;;;21.94;37.32;102350.66;5065487;28;20411;-65
2022/10/06 10:15:23;;;;;;;6.38;2.58;;;;;;;22.07;37.38;102344.41;5080144;28;20806;-63
2022/10/06 10:18:04;;;;;;;3.90;1.90;;;;;;;22.20;36.65;102347.13;5075976;28;20915;-67
2022/10/06 10:21:55;;;;;;;5.20;2.13;;;;;;;22.26;36.65;102349.03;5075215;27;20410;-64
2022/10/06 10:24:53;;;;;;;4.22;2.17;;;;;;;22.23;36.64;102338.59;5086624;28;20781;-65
2022/10/06 10:27:36;;;;;;;5.53;2.13;;;;;;;22.31;36.64;102338.44;5086605;28;21186;-65
2022/10/06 10:32:43;;;;;;;7.72;3.40;;;;;;;22.09;37.23;102329.69;5029100;28;20469;-64
2022/10/06 10:35:18;;;;;;;7.40;2.67;;;;;;;22.05;36.84;102328.41;5027023;28;20417;-64
2022/10/06 10:37:59;;;;;;;3.55;2.60;;;;;;;22.06;36.53;102327.41;5013808;28;20383;-64
2022/10/06 10:40:47;;;;;;;5.15;2.33;;;;;;;21.97;37.09;102323.25;5026561;28;20770;-64
2022/10/06 10:43:51;;;;;;;5.15;2.60;;;;;;;22.08;36.03;102322.63;5026851;28;20383;-64
2022/10/06 10:46:31;;;;;;;3.67;1.70;;;;;;;22.18;34.65;102308.69;5010917;28;20403;-65
2022/10/06 10:49:11;;;;;;;3.70;1.90;;;;;;;22.23;34.51;102313.47;5026362;28;20419;-64
2022/10/06 10:51:44;;;;;;;5.13;2.00;;;;;;;22.29;34.41;102305.41;5026498;28;20905;-64
2022/10/06 10:54:14;;;;;;;4.75;1.83;;;;;;;22.35;33.65;102308.31;5024144;28;20407;-64
2022/10/06 10:56:42;;;;;;;2.95;1.65;;;;;;;22.35;33.18;102301.03;5026147;28;20889;-65
2022/10/06 10:59:20;;;;;;;5.50;2.50;;;;;;;22.39;33.40;102296.84;5026222;28;20394;-64
2022/10/06 11:02:01;;;;;;;5.80;2.58;;;;;;;22.48;33.31;102300.16;5025613;28;20383;-64
2022/10/06 11:04:27;;;;;;;5.15;2.17;;;;;;;22.52;33.25;102293.28;5026361;28;20758;-64
2022/10/06 11:07:23;;;;;;;3.00;1.70;;;;;;;22.55;33.08;102290.19;5026094;28;20388;-65
2022/10/06 11:10:12;;;;;;;4.32;1.98;;;;;;;22.53;33.05;102286.84;5025987;28;20391;-64
2022/10/06 11:13:16;;;;;;;3.33;1.90;;;;;;;22.60;32.84;102286.81;5026065;28;20387;-64
2022/10/06 11:16:06;;;;;;;4.38;1.80;;;;;;;22.69;32.70;102286.41;5009089;28;20403;-63
2022/10/06 11:18:34;;;;;;;3.33;1.77;;;;;;;22.76;32.43;102282.81;5025920;28;20881;-63
2022/10/06 11:21:38;;;;;;;4.53;1.80;;;;;;;22.72;32.63;102277.00;5026132;28;20399;-64
2022/10/06 11:24:40;;;;;;;3.15;1.63;;;;;;;22.57;32.84;102266.47;5003692;28;20456;-65
2022/10/06 11:27:26;;;;;;;3.72;1.90;;;;;;;22.58;33.10;102261.88;5022305;28;20395;-64
2022/10/06 11:30:03;;;;;;;3.28;1.80;;;;;;;22.67;32.88;102257.91;5025086;28;20418;-63
2022/10/06 11:32:53;;;;;;;5.53;2.10;;;;;;;22.76;33.25;102270.16;5045113;28;20385;-63
2022/10/06 11:35:26;;;;;;;2.53;1.92;;;;;;;22.82;32.84;102247.66;5040868;28;20388;-63
2022/10/06 11:38:14;;;;;;;7.93;2.10;;;;;;;22.88;32.92;102252.19;5047375;28;20480;-64
2022/10/06 11:41:12;;;;;;;4.33;1.87;;;;;;;22.95;32.48;102249.47;5054625;28;20897;-64
2022/10/06 11:43:59;;;;;;;5.63;1.90;;;;;;;22.95;32.29;102249.47;5034458;28;20393;-64
2022/10/06 11:46:48;;;;;;;4.30;1.50;;;;;;;22.96;32.15;102242.19;5038868;28;20397;-64
2022/10/06 11:49:31;;;;;;;3.00;1.40;;;;;;;23.00;32.31;102243.44;5018568;28;20784;-65
2022/10/06 11:54:00;;;;;;;4.30;1.50;;;;;;;22.99;32.25;102228.25;5080155;27;20773;-63
2022/10/06 11:56:43;;;;;;;3.53;1.37;;;;;;;22.99;32.20;102230.94;5089528;28;20398;-63
2022/10/06 11:59:45;;;;;;;5.00;1.80;;;;;;;23.00;32.15;102208.28;5076424;28;20462;-64
2022/10/06 12:02:31;;;;;;;4.27;1.63;;;;;;;23.09;32.37;102217.81;5060369;28;20409;-64
2022/10/06 12:05:28;;;;;;;2.70;1.50;;;;;;;23.17;32.22;102214.03;5064824;28;20382;-67
2022/10/06 12:07:56;;;;;;;2.53;1.53;;;;;;;23.19;32.20;102201.94;5065327;28;20398;-64
2022/10/06 12:10:28;;;;;;;2.60;1.33;;;;;;;23.16;31.92;102199.66;5066131;28;20420;-64
2022/10/06 12:13:12;;;;;;;3.47;1.50;;;;;;;23.23;32.61;102196.94;5054049;28;20398;-64
2022/10/06 12:15:55;;;;;;;1.88;1.30;;;;;;;23.22;32.79;102196.09;5054837;28;20418;-64
2022/10/06 12:20:56;;;;;;;3.25;1.40;;;;;;;23.10;32.61;102184.28;5087360;27;20406;-67
2022/10/06 12:23:38;;;;;;;6.40;1.70;;;;;;;23.15;32.68;102189.88;5087090;28;20439;-65
2022/10/06 12:26:24;;;;;;;2.67;1.40;;;;;;;23.27;32.11;102179.22;5086845;28;20991;-64
2022/10/06 12:28:56;;;;;;;3.60;1.45;;;;;;;23.33;32.38;102182.91;5077830;28;20387;-63
2022/10/06 12:32:00;;;;;;;2.42;1.40;;;;;;;23.45;32.17;102190.09;5070234;28;20411;-65
2022/10/06 12:34:59;;;;;;;2.40;1.30;;;;;;;23.55;32.97;102183.34;5062142;28;20394;-64
2022/10/06 12:37:27;;;;;;;3.40;1.40;;;;;;;23.60;32.39;102183.53;5064455;28;20379;-64
2022/10/06 12:42:00;;;;;;;3.17;1.40;;;;;;;23.39;32.43;102176.59;5048054;28;20996;-64
2022/10/06 12:44:37;;;;;;;4.72;1.50;;;;;;;23.47;32.28;102179.06;5024618;28;20399;-64
2022/10/06 12:47:21;;;;;;;1.98;1.38;;;;;;;23.48;32.28;102178.00;5029438;28;20912;-64
2022/10/06 12:50:29;;;;;;;2.65;1.10;;;;;;;23.32;32.64;102178.53;5074429;27;20414;-65
2022/10/06 12:53:04;;;;;;;3.22;1.52;;;;;;;23.29;32.86;102169.81;5086398;28;20815;-65
2022/10/06 12:55:53;;;;;;;3.53;1.38;;;;;;;23.32;32.80;102186.66;5083982;28;20394;-65
2022/10/06 12:58:31;;;;;;;9.18;6.75;;;;;;;23.32;32.38;102173.97;5084371;28;20452;-66
2022/10/06 13:01:03;;;;;;;3.78;1.70;;;;;;;23.26;32.69;102166.72;5081683;28;20395;-65
2022/10/06 13:03:29;;;;;;;5.15;1.80;;;;;;;23.24;32.84;102168.81;5077770;28;20393;-65